Список аэропортов
Фактическая погода:

21 апреля, 18:55
Температура: +21°C (+21.0*)
Ветер: восточный 5 м/с
Давление: *763 мм
Без существ. явл.
Время (МСК)Темп. СВетерВлажностьДавлениеОблачностьОсадки
15:00+20СВ, 4 м/с40%1021 гПаясно
16:00+21СВ, 4 м/с39%1021 гПаясно
17:00+21СВ, 4 м/с37%1020 гПаясно
18:00+22СВ, 4 м/с36%1019 гПаясно
19:00+21СВ, 4 м/с35%1018 гПаясно
20:00+20СВ, 5 м/с37%1018 гПаясно
21:00+19СВ, 5 м/с38%1017 гПаясно
22:00+17СВ, 4 м/с44%1017 гПаясно
23:00+16СВ, 3 м/с51%1017 гПаясно
22 апреля
00:00+14СВ, 3 м/с60%1017 гПаясно
01:00+13СВ, 3 м/с65%1017 гПаясно
02:00+12В, 3 м/с66%1016 гПаясно
03:00+11СВ, 3 м/с70%1016 гПаясно
04:00+10СВ, 3 м/с78%1016 гПаясно
05:00+9СВ, 3 м/с89%1015 гПаясно
06:00+9СВ, 3 м/с94%1014 гПаясно
07:00+8В, 3 м/с94%1014 гПаясно
08:00+8В, 3 м/с93%1014 гПаясно
09:00+9В, 4 м/с84%1014 гПаясно
10:00+12В, 4 м/с67%1013 гПаясно
11:00+15В, 4 м/с55%1013 гПамалооблачно
12:00+18В, 4 м/с47%1013 гПаоблачно
13:00+20В, 5 м/с43%1013 гПас прояснениями
14:00+21В, 6 м/с40%1012 гПас прояснениями
15:00+22В, 7 м/с36%1012 гПаясно
16:00+23В, 7 м/с32%1011 гПас прояснениями
17:00+24В, 7 м/с31%1010 гПаоблачно
18:00+24В, 8 м/с30%1010 гПаоблачно
19:00+23В, 8 м/с31%1009 гПамалооблачно
20:00+22В, 8 м/с32%1009 гПаясно
21:00+21В, 7 м/с33%1008 гПаясно
22:00+20В, 6 м/с35%1008 гПаясно
23:00+18В, 6 м/с42%1009 гПаясно
23 апреля
00:00+17В, 6 м/с45%1009 гПаясно
01:00+16В, 7 м/с42%1008 гПаясно
02:00+15В, 7 м/с43%1008 гПаясно
03:00+15В, 6 м/с45%1008 гПаясно
04:00+14В, 7 м/с46%1008 гПаясно
05:00+13В, 7 м/с49%1007 гПаясно
06:00+13В, 7 м/с51%1007 гПаясно
07:00+12В, 8 м/с51%1007 гПаясно
08:00+12В, 7 м/с52%1007 гПаясно
09:00+12В, 8 м/с52%1007 гПаясно
10:00+13В, 8 м/с50%1006 гПаясно
11:00+15В, 8 м/с47%1006 гПаясно
12:00+16В, 9 м/с45%1005 гПаясно
13:00+18В, 9 м/с44%1004 гПаясно
14:00+19В, 10 м/с42%1004 гПаясно
15:00+20В, 10 м/с39%1003 гПаясно